Time;durP1;ratioP1;P1;durP2;ratioP2;P2;SDS_P1;SDS_P2;PMS_P1;PMS_P2;Temp;Humidity;BMP_temperature;BMP_pressure;BME280_temperature;BME280_humidity;BME280_pressure;Samples;Min_cycle;Max_cycle;Signal;HPM_P1;HPM_P2
2022/08/11 00:00:52;;;;;;;1.90;1.70;;;17.80;99.90;;;;;;5218815;28;20286;-62
2022/08/11 00:03:23;;;;;;;1.42;1.33;;;17.80;99.90;;;;;;5200782;28;20230;-60
2022/08/11 00:05:59;;;;;;;2.45;1.92;;;17.70;99.90;;;;;;5207070;28;20060;-60
2022/08/11 00:08:34;;;;;;;1.80;1.70;;;17.70;99.90;;;;;;5218491;28;20417;-60
2022/08/11 00:11:12;;;;;;;2.13;1.90;;;17.70;99.90;;;;;;5218968;28;20025;-61
2022/08/11 00:13:50;;;;;;;1.85;1.75;;;17.50;99.90;;;;;;5209499;28;20433;-61
2022/08/11 00:16:25;;;;;;;1.98;1.70;;;17.50;99.90;;;;;;5214487;28;20290;-61
2022/08/11 00:19:02;;;;;;;2.05;1.85;;;17.50;99.90;;;;;;5218548;28;20356;-61
2022/08/11 00:21:40;;;;;;;3.22;1.60;;;17.50;99.90;;;;;;5199764;28;20031;-60
2022/08/11 00:24:15;;;;;;;1.38;1.27;;;17.40;99.90;;;;;;5199944;28;20025;-60
2022/08/11 00:26:49;;;;;;;2.00;1.58;;;17.40;99.90;;;;;;5203315;28;20033;-61
2022/08/11 00:29:23;;;;;;;3.00;1.63;;;17.40;99.90;;;;;;5179872;28;20204;-60
2022/08/11 00:32:04;;;;;;;6.10;2.22;;;17.20;99.90;;;;;;5200199;28;20180;-60
2022/08/11 00:34:37;;;;;;;1.45;1.35;;;17.10;99.90;;;;;;5208219;28;20033;-60
2022/08/11 00:37:15;;;;;;;1.77;1.50;;;17.00;99.90;;;;;;5219694;28;20104;-61
2022/08/11 00:39:53;;;;;;;2.13;1.63;;;16.90;99.90;;;;;;5200967;28;20310;-61
2022/08/11 00:42:58;;;;;;;2.20;1.60;;;16.80;99.90;;;;;;5219049;28;20024;-61
2022/08/11 00:45:41;;;;;;;3.03;1.40;;;16.70;99.90;;;;;;5216650;28;20127;-60
2022/08/11 00:48:38;;;;;;;2.15;1.90;;;16.60;99.90;;;;;;5218641;28;20330;-62
2022/08/11 00:51:23;;;;;;;1.75;1.65;;;16.40;99.90;;;;;;5219240;28;20308;-59
2022/08/11 00:54:19;;;;;;;2.30;1.67;;;16.40;99.90;;;;;;5217199;28;20032;-60
2022/08/11 00:57:21;;;;;;;1.85;1.75;;;16.30;99.90;;;;;;5217532;28;20037;-61
2022/08/11 01:00:04;;;;;;;1.90;1.77;;;16.30;99.90;;;;;;5200512;28;20616;-60
2022/08/11 01:03:07;;;;;;;4.15;1.98;;;16.20;99.90;;;;;;5200490;28;20028;-61
2022/08/11 01:05:50;;;;;;;2.35;1.90;;;16.20;99.90;;;;;;5204620;28;20379;-60
2022/08/11 01:08:59;;;;;;;2.90;1.73;;;16.10;99.90;;;;;;5201073;28;20423;-61
2022/08/11 01:12:06;;;;;;;2.10;1.65;;;16.00;99.90;;;;;;5183591;28;20338;-60
2022/08/11 01:15:02;;;;;;;5.55;2.38;;;16.00;99.90;;;;;;5199427;28;20025;-61
2022/08/11 01:18:04;;;;;;;1.98;1.83;;;15.90;99.90;;;;;;5217994;28;20017;-61
2022/08/11 01:21:12;;;;;;;1.60;1.50;;;15.80;99.90;;;;;;5219099;28;20029;-60
2022/08/11 01:24:21;;;;;;;2.10;1.90;;;15.80;99.90;;;;;;5200256;28;20025;-60
2022/08/11 01:27:26;;;;;;;1.95;1.73;;;15.70;99.90;;;;;;5219837;28;20021;-60
2022/08/11 01:30:25;;;;;;;3.33;2.08;;;15.60;99.90;;;;;;5154821;28;20082;-59
2022/08/11 01:33:47;;;;;;;4.93;1.75;;;15.60;99.90;;;;;;5145106;28;20025;-60
2022/08/11 01:36:52;;;;;;;2.35;2.13;;;15.50;99.90;;;;;;5178482;28;20047;-61
2022/08/11 01:39:47;;;;;;;1.97;1.77;;;15.50;99.90;;;;;;5190639;28;20099;-61
2022/08/11 01:45:39;;;;;;;2.65;2.45;;;15.60;99.90;;;;;;5189782;28;20038;-60
2022/08/11 01:48:47;;;;;;;1.88;1.75;;;15.50;99.90;;;;;;5174381;28;20341;-60
2022/08/11 01:51:37;;;;;;;2.55;1.70;;;15.40;99.90;;;;;;5173123;28;20030;-59
2022/08/11 01:54:17;;;;;;;2.47;2.28;;;15.40;99.90;;;;;;5153640;28;20034;-60
2022/08/11 01:57:26;;;;;;;2.38;1.75;;;15.30;99.90;;;;;;5153811;28;20435;-60
2022/08/11 02:00:10;;;;;;;1.90;1.80;;;15.30;99.90;;;;;;5166219;28;20060;-60
2022/08/11 02:03:00;;;;;;;3.15;1.90;;;15.30;99.90;;;;;;5175394;28;20145;-61
2022/08/11 02:05:46;;;;;;;2.33;1.92;;;15.20;99.90;;;;;;5188824;28;20067;-61
2022/08/11 02:08:27;;;;;;;2.55;2.25;;;15.30;99.90;;;;;;5232879;28;20325;-61
2022/08/11 02:11:35;;;;;;;2.90;2.00;;;15.20;99.90;;;;;;5211763;28;20032;-61
2022/08/11 02:14:31;;;;;;;2.05;1.85;;;15.20;99.90;;;;;;5211616;28;20033;-61
2022/08/11 02:17:17;;;;;;;2.35;2.15;;;15.10;99.90;;;;;;5198611;28;20033;-61
2022/08/11 02:23:45;;;;;;;2.60;2.00;;;14.80;99.90;;;;;;5235551;28;20322;-61
2022/08/11 02:26:39;;;;;;;2.10;1.90;;;14.90;99.90;;;;;;5219295;28;20271;-60
2022/08/11 02:29:10;;;;;;;;;;;14.80;99.90;;;;;;5199476;28;20037;-60
2022/08/11 02:35:15;;;;;;;1.90;1.77;;;14.90;99.90;;;;;;5236748;28;20043;-59
2022/08/11 02:38:23;;;;;;;2.10;1.88;;;14.80;99.90;;;;;;5237090;28;20039;-60
2022/08/11 02:44:36;;;;;;;2.30;2.10;;;14.80;99.90;;;;;;5217343;28;20191;-61
2022/08/11 02:47:18;;;;;;;4.50;2.20;;;14.80;99.90;;;;;;5203522;28;20029;-60
2022/08/11 02:50:01;;;;;;;1.95;1.75;;;14.70;99.90;;;;;;5202797;28;20040;-61
2022/08/11 02:52:45;;;;;;;3.70;1.60;;;14.70;99.90;;;;;;5216456;28;20314;-61
2022/08/11 02:55:20;;;;;;;9.57;2.17;;;14.60;99.90;;;;;;5195856;28;20274;-60
2022/08/11 02:58:17;;;;;;;1.92;1.80;;;14.60;99.90;;;;;;5218672;28;20033;-60
2022/08/11 03:01:26;;;;;;;2.60;2.08;;;14.50;99.90;;;;;;5217998;28;20028;-62
2022/08/11 03:04:15;;;;;;;3.58;2.13;;;14.60;99.90;;;;;;5177194;28;20033;-59
2022/08/11 03:07:07;;;;;;;2.03;1.83;;;14.40;99.90;;;;;;5172149;28;20038;-66
2022/08/11 03:10:16;;;;;;;3.65;1.52;;;14.40;99.90;;;;;;5222167;28;20409;-60
2022/08/11 03:16:44;;;;;;;2.22;1.88;;;14.40;99.90;;;;;;5175847;28;20335;-62
2022/08/11 03:19:32;;;;;;;1.75;1.52;;;14.30;99.90;;;;;;5177171;28;20026;-62
2022/08/11 03:22:25;;;;;;;2.35;1.90;;;14.30;99.90;;;;;;5163224;28;20335;-59
2022/08/11 03:25:29;;;;;;;2.10;2.00;;;14.30;99.90;;;;;;5153683;28;20052;-61
2022/08/11 03:28:23;;;;;;;2.03;1.85;;;14.20;99.90;;;;;;5184232;28;20499;-60
2022/08/11 03:31:18;;;;;;;2.47;1.90;;;14.20;99.90;;;;;;5192546;28;20310;-60
2022/08/11 03:34:10;;;;;;;1.75;1.58;;;14.30;99.90;;;;;;5197176;28;20369;-59
2022/08/11 03:37:09;;;;;;;2.60;1.95;;;14.30;99.90;;;;;;5176766;28;20245;-60
2022/08/11 03:40:04;;;;;;;3.22;1.80;;;14.30;99.90;;;;;;5166093;28;20045;-60
2022/08/11 03:42:45;;;;;;;5.20;2.03;;;14.30;99.90;;;;;;5175145;28;20034;-62
2022/08/11 03:45:21;;;;;;;2.70;2.00;;;14.30;99.90;;;;;;5159931;28;20242;-60
2022/08/11 03:48:14;;;;;;;2.47;2.05;;;14.30;99.90;;;;;;5182996;28;20314;-60
2022/08/11 03:51:18;;;;;;;2.90;2.38;;;14.30;99.90;;;;;;5195636;28;20270;-59
2022/08/11 03:54:27;;;;;;;3.30;2.17;;;14.30;99.90;;;;;;5219543;28;20241;-61
2022/08/11 03:57:42;;;;;;;1.67;1.58;;;14.30;99.90;;;;;;5216458;28;20020;-60
2022/08/11 04:00:38;;;;;;;3.60;1.83;;;14.40;99.90;;;;;;5182825;28;20231;-61
2022/08/11 04:03:50;;;;;;;2.20;2.00;;;14.40;99.90;;;;;;5225539;28;20050;-59
2022/08/11 04:07:06;;;;;;;5.30;1.90;;;14.50;99.90;;;;;;5206381;28;20227;-60
2022/08/11 04:09:48;;;;;;;1.80;1.65;;;14.60;99.90;;;;;;5200289;28;20376;-62
2022/08/11 04:12:54;;;;;;;1.95;1.67;;;14.60;99.90;;;;;;5200727;28;20041;-60
2022/08/11 04:15:59;;;;;;;2.50;2.20;;;14.70;99.90;;;;;;5232130;28;20024;-60
2022/08/11 04:18:42;;;;;;;3.47;2.40;;;14.70;99.90;;;;;;5221289;28;20025;-60
2022/08/11 04:21:23;;;;;;;3.30;2.30;;;14.90;99.90;;;;;;5200991;28;20047;-62
2022/08/11 04:24:02;;;;;;;2.28;2.08;;;14.90;99.90;;;;;;5219801;28;20028;-61
2022/08/11 04:27:12;;;;;;;2.28;2.08;;;14.90;99.90;;;;;;5218867;28;20025;-61
2022/08/11 04:30:02;;;;;;;2.38;2.03;;;15.10;99.90;;;;;;5197177;28;20029;-60
2022/08/11 04:33:15;;;;;;;2.85;2.28;;;15.20;99.90;;;;;;5197348;28;20036;-61
2022/08/11 04:36:15;;;;;;;1.73;1.63;;;15.20;99.90;;;;;;5207575;28;20887;-61
2022/08/11 04:39:23;;;;;;;3.78;2.10;;;15.30;99.90;;;;;;5190635;28;20152;-61
2022/08/11 04:45:30;;;;;;;2.20;1.42;;;15.80;99.90;;;;;;5198707;28;20303;-61
2022/08/11 05:07:52;;;;;;;3.35;1.92;;;17.10;99.90;;;;;;5190034;28;20044;-62
2022/08/11 05:10:42;;;;;;;3.35;1.55;;;17.50;99.90;;;;;;5218811;28;20017;-62
2022/08/11 05:37:20;;;;;;;4.40;1.58;;;20.60;99.90;;;;;;5215596;28;20305;-62
2022/08/11 05:57:29;;;;;;;1.52;1.42;;;21.10;99.90;;;;;;5201739;28;20482;-61
2022/08/11 06:00:13;;;;;;;1.83;1.33;;;20.60;99.90;;;;;;5195046;28;20558;-61
2022/08/11 06:02:55;;;;;;;2.25;1.23;;;20.70;99.90;;;;;;5203044;28;20024;-62
2022/08/11 06:05:34;;;;;;;2.45;1.42;;;20.90;99.90;;;;;;5188730;28;20047;-62
2022/08/11 06:08:06;;;;;;;1.70;1.60;;;21.10;99.90;;;;;;5181886;28;20033;-61
2022/08/11 06:10:45;;;;;;;2.67;1.30;;;20.80;99.90;;;;;;5199508;28;20353;-61
2022/08/11 06:13:19;;;;;;;2.10;1.50;;;21.10;99.90;;;;;;5216322;28;20036;-62
2022/08/11 06:15:57;;;;;;;1.85;1.40;;;21.50;99.90;;;;;;5198598;28;20222;-63
2022/08/11 06:18:32;;;;;;;1.95;1.85;;;21.80;99.90;;;;;;5218826;28;20352;-61
2022/08/11 06:21:12;;;;;;;3.10;1.55;;;22.10;99.90;;;;;;5182409;28;20194;-61
2022/08/11 06:23:47;;;;;;;2.58;2.05;;;22.10;99.90;;;;;;5198155;28;20032;-61
2022/08/11 06:26:19;;;;;;;2.67;1.60;;;21.90;99.90;;;;;;5218981;28;20047;-61
2022/08/11 06:28:53;;;;;;;1.60;1.50;;;21.80;99.90;;;;;;5219483;28;20016;-61
2022/08/11 06:31:28;;;;;;;2.53;1.60;;;21.60;99.90;;;;;;5215621;28;20431;-61
2022/08/11 06:34:11;;;;;;;2.75;1.20;;;22.00;99.90;;;;;;5185639;28;20041;-62
2022/08/11 06:37:11;;;;;;;1.73;1.63;;;22.00;99.90;;;;;;5197898;28;20343;-62
2022/08/11 06:40:20;;;;;;;2.28;1.35;;;22.30;99.90;;;;;;5195387;28;20040;-63
2022/08/11 06:43:05;;;;;;;3.15;1.65;;;22.80;99.90;;;;;;5205647;28;20017;-61
2022/08/11 06:45:51;;;;;;;1.27;1.10;;;23.20;99.90;;;;;;5205599;28;20322;-62
2022/08/11 06:48:23;;;;;;;1.42;1.27;;;23.20;99.90;;;;;;5217303;28;20027;-61
2022/08/11 06:51:11;;;;;;;1.75;1.50;;;23.40;99.90;;;;;;5204355;28;20193;-61
2022/08/11 06:53:52;;;;;;;1.50;1.40;;;24.10;99.90;;;;;;5183791;28;20029;-61
2022/08/11 07:02:32;;;;;;;3.30;1.42;;;23.70;99.90;;;;;;5236468;28;20032;-63
2022/08/11 07:05:50;;;;;;;1.33;1.15;;;24.00;99.90;;;;;;5235597;28;20293;-62
2022/08/11 07:29:35;;;;;;;1.98;1.30;;;24.10;99.90;;;;;;5113484;28;20031;-62
2022/08/11 07:32:22;;;;;;;1.85;1.17;;;25.20;99.90;;;;;;5114266;28;20434;-62
2022/08/11 07:35:06;;;;;;;1.13;1.02;;;25.70;99.90;;;;;;5109866;29;20027;-61
2022/08/11 07:37:40;;;;;;;;;;;25.50;99.90;;;;;;5111609;28;20057;-61
2022/08/11 07:40:11;;;;;;;1.40;1.27;;;25.50;99.90;;;;;;5095765;29;20070;-62
2022/08/11 07:42:45;;;;;;;1.65;1.42;;;25.80;99.90;;;;;;5113757;28;20031;-61
2022/08/11 07:53:53;;;;;;;3.08;1.63;;;25.10;99.90;;;;;;5154520;28;20375;-62
2022/08/11 07:56:29;;;;;;;2.20;1.50;;;25.80;99.90;;;;;;5153103;28;20236;-62
2022/08/11 08:19:02;;;;;;;1.58;1.23;;;26.60;99.90;;;;;;5215396;28;20031;-61
2022/08/11 08:21:37;;;;;;;1.58;1.23;;;26.50;99.90;;;;;;5218015;28;20326;-62
2022/08/11 08:24:12;;;;;;;0.85;0.85;;;27.00;99.90;;;;;;5199652;28;20035;-61
2022/08/11 08:26:59;;;;;;;2.70;1.70;;;27.00;99.90;;;;;;5219332;28;20326;-62
2022/08/11 08:32:28;;;;;;;1.48;1.20;;;27.80;99.90;;;;;;5218217;28;20023;-61
2022/08/11 08:35:03;;;;;;;1.15;0.98;;;27.50;99.90;;;;;;5218735;28;20290;-63
2022/08/11 08:37:40;;;;;;;1.23;1.13;;;27.80;99.90;;;;;;5216627;28;20166;-62
2022/08/11 08:40:13;;;;;;;1.50;1.10;;;28.40;99.90;;;;;;5216998;28;20025;-61
2022/08/11 08:42:53;;;;;;;2.42;1.33;;;28.60;99.90;;;;;;5195100;28;20105;-63
2022/08/11 08:45:27;;;;;;;2.17;1.30;;;27.70;99.90;;;;;;5200696;28;20036;-62
2022/08/11 08:48:03;;;;;;;3.85;1.30;;;27.80;99.90;;;;;;5200526;28;20209;-62
2022/08/11 08:53:33;;;;;;;1.30;1.00;;;27.30;99.90;;;;;;5203392;28;20043;-62
2022/08/11 08:56:08;;;;;;;2.17;1.08;;;28.00;99.90;;;;;;5206917;28;20053;-63
2022/08/11 08:58:41;;;;;;;1.60;1.00;;;28.20;99.90;;;;;;5203704;28;20199;-62
2022/08/11 09:01:15;;;;;;;1.13;1.00;;;27.20;99.90;;;;;;5219115;28;20104;-62
2022/08/11 09:03:49;;;;;;;4.13;1.60;;;27.80;99.90;;;;;;5219812;28;20226;-62
2022/08/11 09:06:20;;;;;;;3.13;1.23;;;28.60;99.90;;;;;;5224710;28;20048;-62
2022/08/11 09:08:54;;;;;;;1.30;1.10;;;28.60;99.90;;;;;;5229955;28;20102;-62
2022/08/11 09:18:02;;;;;;;3.47;1.45;;;28.80;99.90;;;;;;5197870;28;20033;-62
2022/08/11 09:20:35;;;;;;;1.58;0.90;;;28.90;99.90;;;;;;5213571;28;20349;-62
2022/08/11 09:28:52;;;;;;;1.60;1.17;;;29.10;99.90;;;;;;5214094;28;20025;-61
2022/08/11 09:31:36;;;;;;;2.28;1.25;;;28.20;99.90;;;;;;5196352;28;20270;-62
2022/08/11 09:34:13;;;;;;;1.73;0.90;;;26.80;99.90;;;;;;5213998;28;20020;-61
2022/08/11 09:45:23;;;;;;;1.23;1.13;;;28.70;99.90;;;;;;5205422;28;20238;-62
2022/08/11 09:47:55;;;;;;;2.78;1.10;;;29.60;99.90;;;;;;5206010;28;20029;-61
2022/08/11 09:50:33;;;;;;;1.13;1.00;;;30.50;99.90;;;;;;5196857;28;20186;-62
2022/08/11 09:53:07;;;;;;;1.10;1.00;;;30.90;99.90;;;;;;5207147;28;20029;-62
2022/08/11 09:55:41;;;;;;;1.25;1.05;;;30.70;99.90;;;;;;5211296;28;20029;-62
2022/08/11 09:58:16;;;;;;;4.78;1.10;;;29.90;99.90;;;;;;5208162;28;20025;-62
2022/08/11 10:00:49;;;;;;;2.63;1.40;;;30.10;99.90;;;;;;5196190;28;20036;-63
2022/08/11 10:03:26;;;;;;;1.83;1.00;;;30.40;99.90;;;;;;5212718;28;20028;-62
2022/08/11 10:08:56;;;;;;;1.27;1.02;;;31.80;99.90;;;;;;5210708;28;20017;-62
2022/08/11 10:11:28;;;;;;;2.30;1.40;;;31.20;99.90;;;;;;5195228;28;20134;-62
2022/08/11 10:16:52;;;;;;;1.60;1.00;;;30.30;99.90;;;;;;5213777;28;20036;-62
2022/08/11 10:19:24;;;;;;;1.15;0.95;;;30.40;99.90;;;;;;5207489;28;20016;-63
2022/08/11 10:27:42;;;;;;;1.10;1.00;;;32.60;99.90;;;;;;5213745;28;20234;-64
2022/08/11 10:35:53;;;;;;;2.33;1.13;;;31.20;99.90;;;;;;5214868;28;20371;-62
2022/08/11 10:38:29;;;;;;;1.27;0.82;;;30.80;99.90;;;;;;5215082;28;20031;-61
2022/08/11 10:43:56;;;;;;;1.92;1.27;;;30.20;99.90;;;;;;5213544;28;20331;-63
2022/08/11 10:49:19;;;;;;;1.58;0.90;;;31.70;99.90;;;;;;5213382;28;20237;-64
2022/08/11 11:00:26;;;;;;;1.00;0.90;;;28.00;99.90;;;;;;5214320;28;20039;-62
2022/08/11 11:03:03;;;;;;;1.10;1.00;;;31.20;99.90;;;;;;5212638;28;20029;-63
2022/08/11 11:05:40;;;;;;;1.20;1.10;;;34.50;99.90;;;;;;5201666;28;20055;-63
2022/08/11 11:11:08;;;;;;;1.30;1.20;;;37.30;94.50;;;;;;5216242;28;20021;-63
2022/08/11 11:19:24;;;;;;;1.92;1.23;;;31.00;96.90;;;;;;5214995;28;20009;-61
2022/08/11 11:22:36;;;;;;;1.00;0.85;;;28.70;99.50;;;;;;5195924;28;20029;-61
2022/08/11 11:25:20;;;;;;;2.25;1.00;;;28.30;99.70;;;;;;5215594;28;20029;-62
2022/08/11 11:28:30;;;;;;;1.33;0.90;;;29.50;99.70;;;;;;5197874;28;20029;-64
2022/08/11 11:31:15;;;;;;;1.77;0.88;;;28.10;99.40;;;;;;5214120;28;20039;-62
2022/08/11 11:34:06;;;;;;;0.73;0.73;;;28.80;99.30;;;;;;5184787;28;20039;-62
2022/08/11 11:36:49;;;;;;;1.92;0.98;;;31.00;97.50;;;;;;5217051;28;20211;-62
2022/08/11 11:39:30;;;;;;;2.22;0.93;;;32.30;96.90;;;;;;5216805;28;20313;-61
2022/08/11 11:42:06;;;;;;;1.42;1.00;;;33.60;96.10;;;;;;5196971;28;20202;-63
2022/08/11 11:44:44;;;;;;;1.80;1.00;;;34.60;94.60;;;;;;5197909;28;20486;-63
2022/08/11 11:47:22;;;;;;;1.08;1.00;;;34.10;94.10;;;;;;5197079;28;20029;-63
2022/08/11 11:49:56;;;;;;;1.50;1.20;;;35.40;93.90;;;;;;5242468;28;20028;-63
2022/08/11 11:52:33;;;;;;;1.23;1.13;;;35.70;92.70;;;;;;5241935;28;20210;-63
2022/08/11 11:55:05;;;;;;;1.23;1.02;;;35.20;92.40;;;;;;5216899;28;20043;-62
2022/08/11 12:03:20;;;;;;;0.88;0.88;;;30.50;94.20;;;;;;5198023;28;20029;-64
2022/08/11 12:05:53;;;;;;;1.08;0.80;;;29.10;95.90;;;;;;5205750;28;20067;-61
2022/08/11 12:08:26;;;;;;;1.00;0.95;;;28.40;96.40;;;;;;5198901;28;20062;-62
2022/08/11 12:13:59;;;;;;;0.73;0.73;;;28.50;96.70;;;;;;5200582;28;20058;-64
2022/08/11 12:16:33;;;;;;;1.55;0.80;;;29.90;95.70;;;;;;5215002;28;20229;-62
2022/08/11 12:19:15;;;;;;;1.63;1.15;;;31.10;95.60;;;;;;5215672;28;20110;-62
2022/08/11 12:27:33;;;;;;;1.45;0.90;;;32.70;92.50;;;;;;5215417;28;20272;-61
2022/08/11 12:30:10;;;;;;;4.03;1.98;;;32.00;93.50;;;;;;5197125;28;20032;-61
2022/08/11 12:32:42;;;;;;;0.80;0.80;;;32.20;93.80;;;;;;5215014;28;20017;-61
2022/08/11 12:35:18;;;;;;;0.70;0.70;;;31.10;93.30;;;;;;5216224;28;20025;-61
2022/08/11 12:38:01;;;;;;;0.70;0.70;;;29.20;94.70;;;;;;5196968;28;20032;-61
2022/08/11 12:46:22;;;;;;;3.75;0.88;;;28.60;95.30;;;;;;5215120;28;20043;-61
2022/08/11 12:51:57;;;;;;;1.95;0.80;;;29.20;94.20;;;;;;5212131;28;20028;-61
2022/08/11 12:54:48;;;;;;;1.83;0.88;;;28.90;94.20;;;;;;5215160;28;20574;-62
2022/08/11 13:06:10;;;;;;;0.93;0.85;;;34.40;92.20;;;;;;5203441;28;20037;-63
2022/08/11 13:08:44;;;;;;;0.75;0.75;;;35.40;90.90;;;;;;5185395;28;20194;-63
2022/08/11 13:14:08;;;;;;;1.27;0.85;;;37.00;89.60;;;;;;5211706;28;20028;-62
2022/08/11 13:19:30;;;;;;;1.02;0.93;;;31.40;91.80;;;;;;5214110;28;20198;-61
2022/08/11 13:22:10;;;;;;;0.70;0.70;;;32.10;91.80;;;;;;5216675;28;20021;-61
2022/08/11 13:24:43;;;;;;;3.33;1.20;;;32.50;91.30;;;;;;5213648;28;20198;-62
2022/08/11 13:27:17;;;;;;;1.08;0.77;;;32.00;91.20;;;;;;5212525;28;20353;-62
2022/08/11 13:32:50;;;;;;;0.75;0.70;;;31.40;91.10;;;;;;5215433;28;20052;-62
2022/08/11 13:35:23;;;;;;;0.77;0.77;;;31.20;91.80;;;;;;5196160;28;20029;-62
2022/08/11 13:38:00;;;;;;;1.08;0.95;;;32.60;91.40;;;;;;5199458;28;20043;-62
2022/08/11 13:40:32;;;;;;;0.60;0.60;;;33.20;90.60;;;;;;5213378;28;20012;-62
2022/08/11 13:43:05;;;;;;;0.90;0.70;;;33.40;90.20;;;;;;5194919;28;20372;-63
2022/08/11 13:45:37;;;;;;;0.70;0.70;;;33.80;89.10;;;;;;5224941;28;20213;-62
2022/08/11 13:48:14;;;;;;;0.88;0.75;;;34.00;89.30;;;;;;5222757;28;20043;-62
2022/08/11 13:53:38;;;;;;;0.75;0.75;;;34.70;88.20;;;;;;5214411;28;20025;-61
2022/08/11 13:56:10;;;;;;;0.75;0.75;;;34.70;88.60;;;;;;5194145;28;20033;-62
2022/08/11 13:58:44;;;;;;;1.00;0.90;;;35.50;88.70;;;;;;5195458;28;20310;-61
2022/08/11 14:01:18;;;;;;;0.85;0.80;;;34.00;87.90;;;;;;5182812;28;20032;-62
2022/08/11 14:03:55;;;;;;;0.70;0.70;;;33.70;87.80;;;;;;5196942;28;20028;-63
2022/08/11 14:06:33;;;;;;;0.60;0.55;;;34.00;88.30;;;;;;5199922;28;20052;-62
2022/08/11 14:09:10;;;;;;;0.88;0.70;;;32.40;88.30;;;;;;5198148;28;20032;-63
2022/08/11 14:14:53;;;;;;;1.77;0.90;;;30.70;91.00;;;;;;5198907;28;20045;-62
2022/08/11 14:17:31;;;;;;;0.70;0.70;;;30.60;91.30;;;;;;5212504;28;20043;-64
2022/08/11 14:20:06;;;;;;;1.17;0.82;;;30.90;91.00;;;;;;5212500;28;20302;-62
2022/08/11 14:22:41;;;;;;;2.45;1.02;;;31.20;91.20;;;;;;5214577;28;20295;-62
2022/08/11 14:25:19;;;;;;;1.10;0.82;;;30.10;91.40;;;;;;5212152;28;20028;-63
2022/08/11 14:27:53;;;;;;;0.90;0.73;;;30.10;91.80;;;;;;5214860;28;20020;-61
2022/08/11 14:33:17;;;;;;;1.65;0.90;;;30.10;91.80;;;;;;5230744;28;20321;-62
2022/08/11 14:35:56;;;;;;;0.65;0.65;;;29.80;92.10;;;;;;5235737;28;20188;-62
2022/08/11 14:38:37;;;;;;;1.25;0.88;;;29.70;92.20;;;;;;5195396;28;20029;-62
2022/08/11 14:47:03;;;;;;;1.15;0.75;;;29.60;92.70;;;;;;5197296;28;20880;-62
2022/08/11 14:49:36;;;;;;;2.25;0.93;;;29.40;93.20;;;;;;5189005;28;20025;-63
2022/08/11 14:52:10;;;;;;;0.75;0.73;;;29.30;93.10;;;;;;5194143;28;20025;-61
2022/08/11 14:58:06;;;;;;;0.90;0.90;;;29.20;93.30;;;;;;5129052;28;20030;-62
2022/08/11 15:00:40;;;;;;;1.35;0.80;;;29.20;93.90;;;;;;5122468;28;20018;-62
2022/08/11 15:03:14;;;;;;;2.00;0.80;;;29.90;93.70;;;;;;5188143;28;20045;-61
2022/08/11 15:05:55;;;;;;;2.13;0.90;;;29.40;93.60;;;;;;5223706;28;20319;-63
2022/08/11 15:17:11;;;;;;;2.85;1.13;;;28.30;94.70;;;;;;5210960;28;20014;-62
2022/08/11 15:24:18;;;;;;;3.47;0.93;;;27.90;95.00;;;;;;5176615;28;20028;-62
2022/08/11 15:25:27;;;;;;;0.80;0.80;;;27.30;94.90;;;;;;5212229;28;20259;-61
2022/08/11 15:39:36;;;;;;;1.20;0.85;;;27.80;95.50;;;;;;5213639;28;20036;-61
2022/08/11 15:48:08;;;;;;;2.00;1.07;;;26.40;97.20;;;;;;5236574;28;20043;-60
2022/08/11 15:50:45;;;;;;;1.30;1.02;;;26.30;97.50;;;;;;5236319;28;20265;-61
2022/08/11 15:53:33;;;;;;;0.82;0.80;;;26.30;97.50;;;;;;5220966;28;20024;-62
2022/08/11 15:56:05;;;;;;;1.33;1.08;;;26.20;97.80;;;;;;5222766;28;20303;-61
2022/08/11 16:04:29;;;;;;;0.80;0.80;;;25.60;98.30;;;;;;5202834;28;20036;-61
2022/08/11 16:07:08;;;;;;;3.15;1.60;;;25.60;98.40;;;;;;5215332;28;20043;-61
2022/08/11 16:09:54;;;;;;;1.23;1.00;;;25.40;98.50;;;;;;5199849;28;20027;-62
2022/08/11 16:12:29;;;;;;;1.10;1.00;;;25.40;98.90;;;;;;5198472;28;20035;-61
2022/08/11 16:18:05;;;;;;;1.60;1.20;;;25.90;98.60;;;;;;5216438;28;20039;-61
2022/08/11 16:20:41;;;;;;;1.58;1.08;;;25.90;98.90;;;;;;5217368;28;20020;-61
2022/08/11 16:23:19;;;;;;;1.52;1.10;;;25.70;99.10;;;;;;5218138;28;20023;-61
2022/08/11 16:25:56;;;;;;;2.75;1.25;;;25.70;99.50;;;;;;5215208;28;20025;-61
2022/08/11 16:28:33;;;;;;;1.23;1.10;;;25.50;99.70;;;;;;5199503;28;20051;-62
2022/08/11 16:31:09;;;;;;;2.25;0.98;;;25.50;99.70;;;;;;5207376;28;20328;-61
2022/08/11 16:33:44;;;;;;;3.38;1.02;;;25.50;99.40;;;;;;5198553;28;20025;-61
2022/08/11 16:39:18;;;;;;;1.33;1.10;;;25.30;98.90;;;;;;5222258;28;20032;-60
2022/08/11 16:47:29;;;;;;;3.63;1.23;;;25.20;99.70;;;;;;5200879;28;20035;-61
2022/08/11 16:50:02;;;;;;;1.08;0.98;;;25.10;99.30;;;;;;5213967;28;20025;-60
2022/08/11 16:52:33;;;;;;;1.48;1.20;;;25.00;99.70;;;;;;5218141;28;20414;-61
2022/08/11 16:55:08;;;;;;;1.55;1.10;;;24.90;99.60;;;;;;5234439;28;20035;-61
2022/08/11 17:00:34;;;;;;;1.85;1.17;;;24.90;99.90;;;;;;5217893;28;20047;-61
2022/08/11 17:14:49;;;;;;;1.00;0.90;;;24.70;99.90;;;;;;5215959;28;20104;-60
2022/08/11 17:17:31;;;;;;;1.05;0.95;;;24.60;99.90;;;;;;5197358;28;20250;-60
2022/08/11 17:20:14;;;;;;;0.95;0.95;;;24.70;99.90;;;;;;5214217;28;20024;-62
2022/08/11 17:25:38;;;;;;;1.63;1.10;;;24.40;99.90;;;;;;5213743;28;20051;-61
2022/08/11 17:28:13;;;;;;;1.17;0.82;;;24.30;99.90;;;;;;5213337;28;20029;-62
2022/08/11 17:36:36;;;;;;;4.90;1.13;;;23.80;99.90;;;;;;5214177;28;20016;-61
2022/08/11 17:39:08;;;;;;;1.77;1.40;;;23.80;99.90;;;;;;5213929;28;20043;-61
2022/08/11 17:50:16;;;;;;;1.92;1.10;;;23.50;99.90;;;;;;5212582;28;20019;-60
2022/08/11 18:01:23;;;;;;;1.38;1.10;;;23.20;99.90;;;;;;5214439;28;20028;-60
2022/08/11 18:03:56;;;;;;;1.77;1.15;;;23.20;99.90;;;;;;5179063;28;20067;-60
2022/08/11 18:06:30;;;;;;;1.33;1.02;;;23.00;99.90;;;;;;5201746;28;20049;-62
